sensor_id;sensor_type;location;lat;lon;timestamp;pressure;altitude;pressure_sealevel;temperature;humidity
74649;BME280;63168;49.280;7.214;2023-01-15T15:02:33;98001.44;;;16.96;51.81
74649;BME280;63168;49.280;7.214;2023-01-15T15:05:01;98003.53;;;17.03;51.69
74649;BME280;63168;49.280;7.214;2023-01-15T15:07:38;98010.97;;;17.09;50.82
74649;BME280;63168;49.280;7.214;2023-01-15T15:10:11;98000.75;;;17.04;45.54
74649;BME280;63168;49.280;7.214;2023-01-15T15:12:43;98010.78;;;17.00;43.37
74649;BME280;63168;49.280;7.214;2023-01-15T15:15:14;98000.06;;;16.92;42.09
74649;BME280;63168;49.280;7.214;2023-01-15T15:17:53;98001.16;;;16.90;40.69
74649;BME280;63168;49.280;7.214;2023-01-15T15:20:30;98000.75;;;16.94;41.88
74649;BME280;63168;49.280;7.214;2023-01-15T15:23:02;98009.13;;;16.99;42.39
74649;BME280;63168;49.280;7.214;2023-01-15T15:25:32;98002.34;;;17.07;44.85
74649;BME280;63168;49.280;7.214;2023-01-15T15:28:04;98009.16;;;17.09;44.03
74649;BME280;63168;49.280;7.214;2023-01-15T15:30:31;97996.88;;;17.08;44.61
74649;BME280;63168;49.280;7.214;2023-01-15T15:33:03;97994.66;;;17.14;44.53
74649;BME280;63168;49.280;7.214;2023-01-15T15:35:30;97993.53;;;17.16;45.01
74649;BME280;63168;49.280;7.214;2023-01-15T15:38:00;97997.59;;;17.20;45.41
74649;BME280;63168;49.280;7.214;2023-01-15T15:40:30;97988.50;;;17.23;45.61
74649;BME280;63168;49.280;7.214;2023-01-15T15:43:03;97995.38;;;17.25;46.08
74649;BME280;63168;49.280;7.214;2023-01-15T15:45:52;97983.50;;;17.30;46.27
74649;BME280;63168;49.280;7.214;2023-01-15T15:48:38;97987.69;;;17.32;46.34
74649;BME280;63168;49.280;7.214;2023-01-15T15:51:22;97996.31;;;17.34;46.40
74649;BME280;63168;49.280;7.214;2023-01-15T15:53:49;97989.22;;;17.35;46.35
74649;BME280;63168;49.280;7.214;2023-01-15T15:56:14;97983.06;;;17.34;46.52
74649;BME280;63168;49.280;7.214;2023-01-15T15:58:40;97983.63;;;17.38;46.52
74649;BME280;63168;49.280;7.214;2023-01-15T16:01:09;97994.09;;;17.40;46.57
74649;BME280;63168;49.280;7.214;2023-01-15T16:03:35;97984.31;;;17.40;46.32
74649;BME280;63168;49.280;7.214;2023-01-15T16:06:05;97973.72;;;17.40;46.65
74649;BME280;63168;49.280;7.214;2023-01-15T16:08:31;97978.19;;;17.40;47.02
74649;BME280;63168;49.280;7.214;2023-01-15T16:10:59;97979.88;;;17.41;46.73
74649;BME280;63168;49.280;7.214;2023-01-15T16:13:27;97978.06;;;17.41;46.54
74649;BME280;63168;49.280;7.214;2023-01-15T16:15:56;97969.13;;;17.42;46.37
74649;BME280;63168;49.280;7.214;2023-01-15T16:18:24;97964.66;;;17.43;46.56
74649;BME280;63168;49.280;7.214;2023-01-15T16:20:50;97952.22;;;17.43;46.70
74649;BME280;63168;49.280;7.214;2023-01-15T16:23:22;97960.06;;;17.45;47.24
74649;BME280;63168;49.280;7.214;2023-01-15T16:25:57;97960.75;;;17.47;47.15
74649;BME280;63168;49.280;7.214;2023-01-15T16:28:25;97958.91;;;17.47;47.01
74649;BME280;63168;49.280;7.214;2023-01-15T16:30:55;97954.47;;;17.48;47.08
74649;BME280;63168;49.280;7.214;2023-01-15T16:33:21;97958.09;;;17.47;46.72
74649;BME280;63168;49.280;7.214;2023-01-15T16:35:46;97963.53;;;17.45;46.82
74649;BME280;63168;49.280;7.214;2023-01-15T16:38:17;97960.91;;;17.45;46.96
74649;BME280;63168;49.280;7.214;2023-01-15T16:40:45;97956.59;;;17.44;47.27
74649;BME280;63168;49.280;7.214;2023-01-15T16:43:14;97960.06;;;17.45;46.90
74649;BME280;63168;49.280;7.214;2023-01-15T16:45:56;97964.38;;;17.46;46.90
74649;BME280;63168;49.280;7.214;2023-01-15T16:48:27;97960.91;;;17.45;46.98
74649;BME280;63168;49.280;7.214;2023-01-15T16:50:55;97957.25;;;17.46;47.04
74649;BME280;63168;49.280;7.214;2023-01-15T16:53:30;97961.56;;;17.47;47.58
74649;BME280;63168;49.280;7.214;2023-01-15T16:55:57;97965.06;;;17.48;47.07
74649;BME280;63168;49.280;7.214;2023-01-15T16:58:33;97957.25;;;17.46;47.57
74649;BME280;63168;49.280;7.214;2023-01-15T17:01:00;97959.91;;;17.46;47.40
74649;BME280;63168;49.280;7.214;2023-01-15T17:03:27;97962.56;;;17.46;47.50
74649;BME280;63168;49.280;7.214;2023-01-15T17:05:55;97961.56;;;17.47;47.15
74649;BME280;63168;49.280;7.214;2023-01-15T17:08:30;97955.31;;;17.48;47.60
74649;BME280;63168;49.280;7.214;2023-01-15T17:11:00;97962.41;;;17.48;47.39
74649;BME280;63168;49.280;7.214;2023-01-15T17:13:31;97967.59;;;17.49;47.23
74649;BME280;63168;49.280;7.214;2023-01-15T17:16:03;97969.94;;;17.53;47.29
74649;BME280;63168;49.280;7.214;2023-01-15T17:18:30;97956.69;;;17.53;47.26
74649;BME280;63168;49.280;7.214;2023-01-15T17:20:57;97956.69;;;17.53;47.33
74649;BME280;63168;49.280;7.214;2023-01-15T17:23:26;97956.69;;;17.53;47.54
74649;BME280;63168;49.280;7.214;2023-01-15T17:25:52;97955.72;;;17.54;47.23
74649;BME280;63168;49.280;7.214;2023-01-15T17:28:19;97954.88;;;17.53;47.64
74649;BME280;63168;49.280;7.214;2023-01-15T17:30:49;97957.69;;;17.52;47.60
74649;BME280;63168;49.280;7.214;2023-01-15T17:33:17;97964.78;;;17.51;47.56
74649;BME280;63168;49.280;7.214;2023-01-15T17:35:43;97960.16;;;17.53;47.31
74649;BME280;63168;49.280;7.214;2023-01-15T17:38:12;97959.22;;;17.54;47.73
74649;BME280;63168;49.280;7.214;2023-01-15T17:40:38;97962.00;;;17.53;47.43
74649;BME280;63168;49.280;7.214;2023-01-15T17:43:04;97962.50;;;17.66;47.00
74649;BME280;63168;49.280;7.214;2023-01-15T17:45:33;97959.16;;;17.74;46.50
74649;BME280;63168;49.280;7.214;2023-01-15T17:47:58;97959.16;;;17.74;46.84
74649;BME280;63168;49.280;7.214;2023-01-15T17:50:25;97949.13;;;17.78;47.00
74649;BME280;63168;49.280;7.214;2023-01-15T17:52:52;97948.94;;;17.79;48.21
74649;BME280;63168;49.280;7.214;2023-01-15T17:55:20;97940.31;;;17.77;48.60
74649;BME280;63168;49.280;7.214;2023-01-15T17:58:05;97948.97;;;17.69;49.18
74649;BME280;63168;49.280;7.214;2023-01-15T18:00:51;97948.44;;;17.66;50.00
74649;BME280;63168;49.280;7.214;2023-01-15T18:03:38;97945.22;;;17.62;50.16
74649;BME280;63168;49.280;7.214;2023-01-15T18:06:25;97929.78;;;17.57;50.94
74649;BME280;63168;49.280;7.214;2023-01-15T18:08:54;97942.19;;;17.57;51.12
74649;BME280;63168;49.280;7.214;2023-01-15T18:11:21;97928.06;;;17.56;51.73
74649;BME280;63168;49.280;7.214;2023-01-15T18:13:47;97936.72;;;17.58;51.76
74649;BME280;63168;49.280;7.214;2023-01-15T18:16:14;97937.72;;;17.57;52.26
74649;BME280;63168;49.280;7.214;2023-01-15T18:18:41;97943.97;;;17.56;52.36
74649;BME280;63168;49.280;7.214;2023-01-15T18:21:07;97930.06;;;17.54;52.58
74649;BME280;63168;49.280;7.214;2023-01-15T18:23:32;97934.50;;;17.54;52.94
74649;BME280;63168;49.280;7.214;2023-01-15T18:26:03;97928.22;;;17.55;53.39
74649;BME280;63168;49.280;7.214;2023-01-15T18:28:30;97915.81;;;17.55;53.45
74649;BME280;63168;49.280;7.214;2023-01-15T18:30:55;97914.16;;;17.54;53.49
74649;BME280;63168;49.280;7.214;2023-01-15T18:33:22;97919.44;;;17.54;53.53
74649;BME280;63168;49.280;7.214;2023-01-15T18:35:47;97913.31;;;17.54;54.10
74649;BME280;63168;49.280;7.214;2023-01-15T18:38:13;97904.50;;;17.53;54.07
74649;BME280;63168;49.280;7.214;2023-01-15T18:40:38;97891.09;;;17.55;54.29
74649;BME280;63168;49.280;7.214;2023-01-15T18:43:03;97882.47;;;17.53;54.33
74649;BME280;63168;49.280;7.214;2023-01-15T18:45:48;97869.09;;;17.54;54.52
74649;BME280;63168;49.280;7.214;2023-01-15T18:48:33;97869.91;;;17.55;54.88
74649;BME280;63168;49.280;7.214;2023-01-15T18:51:05;97862.94;;;17.54;54.58
74649;BME280;63168;49.280;7.214;2023-01-15T18:53:31;97865.72;;;17.52;54.96
74649;BME280;63168;49.280;7.214;2023-01-15T18:56:00;97856.97;;;17.52;55.26
74649;BME280;63168;49.280;7.214;2023-01-15T18:58:25;97862.09;;;17.53;55.72
74649;BME280;63168;49.280;7.214;2023-01-15T19:00:51;97859.75;;;17.50;55.79
74649;BME280;63168;49.280;7.214;2023-01-15T19:03:16;97850.97;;;17.49;55.89
74649;BME280;63168;49.280;7.214;2023-01-15T19:05:43;97843.00;;;17.49;55.94
74649;BME280;63168;49.280;7.214;2023-01-15T19:08:08;97839.50;;;17.49;56.38
74649;BME280;63168;49.280;7.214;2023-01-15T19:10:34;97836.84;;;17.49;56.40
74649;BME280;63168;49.280;7.214;2023-01-15T19:12:59;97843.72;;;17.52;56.52
74649;BME280;63168;49.280;7.214;2023-01-15T19:15:27;97842.59;;;17.54;56.29
74649;BME280;63168;49.280;7.214;2023-01-15T19:18:11;97836.38;;;17.63;53.46
74649;BME280;63168;49.280;7.214;2023-01-15T19:20:56;97825.72;;;17.73;52.63
74649;BME280;63168;49.280;7.214;2023-01-15T19:23:22;97822.56;;;17.70;53.50
74649;BME280;63168;49.280;7.214;2023-01-15T19:25:47;97827.72;;;17.71;53.74
74649;BME280;63168;49.280;7.214;2023-01-15T19:28:16;97824.06;;;17.72;53.96
74649;BME280;63168;49.280;7.214;2023-01-15T19:30:42;97828.56;;;17.72;53.76
74649;BME280;63168;49.280;7.214;2023-01-15T19:33:28;97830.75;;;17.76;53.75
74649;BME280;63168;49.280;7.214;2023-01-15T19:35:56;97823.63;;;17.77;53.78
74649;BME280;63168;49.280;7.214;2023-01-15T19:38:22;97827.13;;;17.78;53.62
74649;BME280;63168;49.280;7.214;2023-01-15T19:40:47;97811.59;;;17.83;53.44
74649;BME280;63168;49.280;7.214;2023-01-15T19:43:14;97813.41;;;17.82;53.35
74649;BME280;63168;49.280;7.214;2023-01-15T19:45:58;97816.91;;;17.83;53.79
74649;BME280;63168;49.280;7.214;2023-01-15T19:48:42;97813.28;;;17.84;53.35
74649;BME280;63168;49.280;7.214;2023-01-15T19:51:27;97811.47;;;17.84;53.72
74649;BME280;63168;49.280;7.214;2023-01-15T19:54:11;97820.09;;;17.86;53.56
74649;BME280;63168;49.280;7.214;2023-01-15T19:56:36;97793.56;;;17.86;53.69
74649;BME280;63168;49.280;7.214;2023-01-15T19:59:02;97789.25;;;17.85;53.67
74649;BME280;63168;49.280;7.214;2023-01-15T20:01:27;97791.75;;;17.87;53.57
74649;BME280;63168;49.280;7.214;2023-01-15T20:03:53;97786.31;;;17.88;53.28
74649;BME280;63168;49.280;7.214;2023-01-15T20:06:18;97781.84;;;17.89;53.60
74649;BME280;63168;49.280;7.214;2023-01-15T20:08:45;97780.16;;;17.88;53.42
74649;BME280;63168;49.280;7.214;2023-01-15T20:11:10;97773.06;;;17.88;53.54
74649;BME280;63168;49.280;7.214;2023-01-15T20:13:37;97769.25;;;17.91;53.34
74649;BME280;63168;49.280;7.214;2023-01-15T20:16:17;97765.09;;;17.88;53.46
74649;BME280;63168;49.280;7.214;2023-01-15T20:18:44;97763.44;;;17.87;53.31
74649;BME280;63168;49.280;7.214;2023-01-15T20:21:12;97766.09;;;17.87;53.25
74649;BME280;63168;49.280;7.214;2023-01-15T20:23:39;97761.44;;;17.89;53.36
74649;BME280;63168;49.280;7.214;2023-01-15T20:26:07;97762.16;;;17.92;53.27
74649;BME280;63168;49.280;7.214;2023-01-15T20:28:37;97750.53;;;17.93;53.54
74649;BME280;63168;49.280;7.214;2023-01-15T20:31:02;97755.84;;;17.93;53.59
74649;BME280;63168;49.280;7.214;2023-01-15T20:33:28;97757.38;;;17.95;53.44
74649;BME280;63168;49.280;7.214;2023-01-15T20:35:53;97748.34;;;17.88;53.30
74649;BME280;63168;49.280;7.214;2023-01-15T20:38:19;97753.63;;;17.88;53.11
74649;BME280;63168;49.280;7.214;2023-01-15T20:40:45;97739.56;;;17.87;53.53
74649;BME280;63168;49.280;7.214;2023-01-15T20:43:13;97740.22;;;17.89;53.34
74649;BME280;63168;49.280;7.214;2023-01-15T20:46:05;97731.13;;;17.92;53.20
74649;BME280;63168;49.280;7.214;2023-01-15T20:48:31;97744.09;;;17.95;53.18
74649;BME280;63168;49.280;7.214;2023-01-15T20:51:15;97738.94;;;17.94;53.15
74649;BME280;63168;49.280;7.214;2023-01-15T20:53:43;97740.31;;;17.98;53.30
74649;BME280;63168;49.280;7.214;2023-01-15T20:56:14;97738.66;;;17.97;53.28
74649;BME280;63168;49.280;7.214;2023-01-15T20:58:41;97723.34;;;17.91;52.96
74649;BME280;63168;49.280;7.214;2023-01-15T21:01:07;97713.03;;;17.87;53.27
74649;BME280;63168;49.280;7.214;2023-01-15T21:03:35;97708.72;;;17.86;53.44
74649;BME280;63168;49.280;7.214;2023-01-15T21:06:00;97704.09;;;17.88;53.06
74649;BME280;63168;49.280;7.214;2023-01-15T21:08:26;97707.59;;;17.89;52.98
74649;BME280;63168;49.280;7.214;2023-01-15T21:10:52;97697.00;;;17.89;52.90
74649;BME280;63168;49.280;7.214;2023-01-15T21:13:18;97689.84;;;17.89;53.24
74649;BME280;63168;49.280;7.214;2023-01-15T21:15:53;97682.72;;;17.90;53.22
74649;BME280;63168;49.280;7.214;2023-01-15T21:18:19;97697.00;;;17.89;53.23
74649;BME280;63168;49.280;7.214;2023-01-15T21:20:45;97697.00;;;17.89;53.13
74649;BME280;63168;49.280;7.214;2023-01-15T21:23:10;97680.94;;;17.91;53.14
74649;BME280;63168;49.280;7.214;2023-01-15T21:25:36;97681.13;;;17.79;53.57
74649;BME280;63168;49.280;7.214;2023-01-15T21:28:02;97679.25;;;17.71;54.67
74649;BME280;63168;49.280;7.214;2023-01-15T21:30:27;97678.03;;;17.66;55.02
74649;BME280;63168;49.280;7.214;2023-01-15T21:32:54;97677.63;;;17.60;54.79
74649;BME280;63168;49.280;7.214;2023-01-15T21:35:20;97666.50;;;17.57;55.20
74649;BME280;63168;49.280;7.214;2023-01-15T21:37:45;97665.66;;;17.56;55.52
74649;BME280;63168;49.280;7.214;2023-01-15T21:40:11;97657.03;;;17.54;55.82
74649;BME280;63168;49.280;7.214;2023-01-15T21:42:37;97645.06;;;17.50;56.17
74649;BME280;63168;49.280;7.214;2023-01-15T21:45:21;97637.28;;;17.48;56.12
74649;BME280;63168;49.280;7.214;2023-01-15T21:47:46;97643.38;;;17.49;55.97
74649;BME280;63168;49.280;7.214;2023-01-15T21:50:14;97630.81;;;17.51;56.29
74649;BME280;63168;49.280;7.214;2023-01-15T21:52:39;97630.81;;;17.51;56.16
74649;BME280;63168;49.280;7.214;2023-01-15T21:55:05;97617.56;;;17.51;56.40
74649;BME280;63168;49.280;7.214;2023-01-15T21:57:31;97618.56;;;17.50;56.24
74649;BME280;63168;49.280;7.214;2023-01-15T21:59:57;97606.97;;;17.51;56.17
74649;BME280;63168;49.280;7.214;2023-01-15T22:02:22;97608.63;;;17.52;56.32
74649;BME280;63168;49.280;7.214;2023-01-15T22:04:48;97603.63;;;17.49;56.62
74649;BME280;63168;49.280;7.214;2023-01-15T22:07:16;97605.63;;;17.47;56.78
74649;BME280;63168;49.280;7.214;2023-01-15T22:09:42;97600.47;;;17.45;56.53
74649;BME280;63168;49.280;7.214;2023-01-15T22:12:08;97589.00;;;17.45;56.96
74649;BME280;63168;49.280;7.214;2023-01-15T22:14:33;97590.69;;;17.46;57.00
74649;BME280;63168;49.280;7.214;2023-01-15T22:17:00;97578.13;;;17.48;56.93
74649;BME280;63168;49.280;7.214;2023-01-15T22:19:28;97582.44;;;17.49;56.84
74649;BME280;63168;49.280;7.214;2023-01-15T22:21:55;97581.75;;;17.47;57.15
74649;BME280;63168;49.280;7.214;2023-01-15T22:24:25;97581.75;;;17.47;57.13
74649;BME280;63168;49.280;7.214;2023-01-15T22:26:51;97568.50;;;17.47;57.10
74649;BME280;63168;49.280;7.214;2023-01-15T22:29:20;97563.50;;;17.44;56.89
74649;BME280;63168;49.280;7.214;2023-01-15T22:31:46;97555.56;;;17.44;57.36
74649;BME280;63168;49.280;7.214;2023-01-15T22:34:11;97561.69;;;17.44;56.88
74649;BME280;63168;49.280;7.214;2023-01-15T22:36:36;97553.75;;;17.44;57.07
74649;BME280;63168;49.280;7.214;2023-01-15T22:39:02;97551.09;;;17.44;57.35
74649;BME280;63168;49.280;7.214;2023-01-15T22:41:30;97557.22;;;17.45;57.29
74649;BME280;63168;49.280;7.214;2023-01-15T22:44:14;97541.63;;;17.42;56.94
74649;BME280;63168;49.280;7.214;2023-01-15T22:46:39;97533.66;;;17.42;57.47
74649;BME280;63168;49.280;7.214;2023-01-15T22:49:04;97532.00;;;17.41;57.18
74649;BME280;63168;49.280;7.214;2023-01-15T22:51:30;97536.31;;;17.42;57.29
74649;BME280;63168;49.280;7.214;2023-01-15T22:53:56;97533.81;;;17.40;57.23
74649;BME280;63168;49.280;7.214;2023-01-15T22:56:22;97531.00;;;17.42;57.16
74649;BME280;63168;49.280;7.214;2023-01-15T22:58:53;97532.69;;;17.43;57.37
74649;BME280;63168;49.280;7.214;2023-01-15T23:01:18;97516.81;;;17.43;57.29
74649;BME280;63168;49.280;7.214;2023-01-15T23:03:44;97509.00;;;17.41;57.47
74649;BME280;63168;49.280;7.214;2023-01-15T23:06:10;97511.66;;;17.41;57.79
74649;BME280;63168;49.280;7.214;2023-01-15T23:08:36;97496.56;;;17.42;57.68
74649;BME280;63168;49.280;7.214;2023-01-15T23:11:07;97500.91;;;17.43;57.43
74649;BME280;63168;49.280;7.214;2023-01-15T23:13:33;97495.59;;;17.43;57.29
74649;BME280;63168;49.280;7.214;2023-01-15T23:15:59;97487.81;;;17.41;57.25
74649;BME280;63168;49.280;7.214;2023-01-15T23:18:25;97476.22;;;17.42;57.43
74649;BME280;63168;49.280;7.214;2023-01-15T23:20:54;97473.72;;;17.41;57.40
74649;BME280;63168;49.280;7.214;2023-01-15T23:23:19;97475.50;;;17.40;57.61
74649;BME280;63168;49.280;7.214;2023-01-15T23:25:45;97463.81;;;17.43;57.65
74649;BME280;63168;49.280;7.214;2023-01-15T23:28:10;97466.44;;;17.43;57.49
74649;BME280;63168;49.280;7.214;2023-01-15T23:30:36;97465.09;;;17.38;57.53
74649;BME280;63168;49.280;7.214;2023-01-15T23:33:02;97457.16;;;17.38;57.23
74649;BME280;63168;49.280;7.214;2023-01-15T23:35:28;97454.31;;;17.40;57.58
74649;BME280;63168;49.280;7.214;2023-01-15T23:37:53;97447.50;;;17.37;57.71
74649;BME280;63168;49.280;7.214;2023-01-15T23:40:19;97435.94;;;17.38;57.27
74649;BME280;63168;49.280;7.214;2023-01-15T23:42:44;97444.06;;;17.37;57.66
74649;BME280;63168;49.280;7.214;2023-01-15T23:45:28;97442.22;;;17.37;57.49
74649;BME280;63168;49.280;7.214;2023-01-15T23:48:13;97428.50;;;17.42;57.68
74649;BME280;63168;49.280;7.214;2023-01-15T23:50:39;97424.34;;;17.40;57.57
74649;BME280;63168;49.280;7.214;2023-01-15T23:53:04;97416.41;;;17.40;57.57
74649;BME280;63168;49.280;7.214;2023-01-15T23:55:30;97404.97;;;17.39;57.53
74649;BME280;63168;49.280;7.214;2023-01-15T23:57:56;97404.16;;;17.38;57.59
